PWSweather.com
Personal Weather Stations
Station Observations
RIORANCHO
Corrales Heights, Rio Rancho, NM 87124

Corrales HeightsRio Rancho, NM 87124

Lat: 35.241928, Lon: -106.647095

Elevation: 5297

Station Type: Davis Vantage Pro 2 Plus

http://www.weatherriorancho.com

High Low Average
Temperature 62.3°F16.8°C 28.2°F-2.1°C 45.8°F7.7°C
Dew Point 13.7°F-10.2°C -1.6°F-18.7°C 6.8°F-14.0°C
Winds 12.7 mph 20.4 kmh Calm Calm 2.0 mph SW3.2 kmh SW
Wind Gusts 29.9 mph48.1 kmh -- 5.0 mph8.0 kmh
Humidity 43% 8% 23%
Pressure 30.02 in1016.6 mb 29.82 in1009.8 mb -
Precipitation 0.00 in0.0 mm - -
Hour Temp Dew Point Humidity Winds Wind Gusts Pressure Precip Precip Rate Daily Precip Total
12:00 AM 42.9°F6.1°C 10.3°F-12.1°C 26% Calm Calm -- 29.98 in1015.2 mb - 0.00 in0.0 mm 0.00 in0.0 mm
12:10 AM 42.2°F5.7°C 10.5°F-11.9°C 27% Calm Calm -- 29.98 in1015.2 mb - 0.00 in0.0 mm 0.00 in0.0 mm
12:20 AM 41.6°F5.3°C 10.1°F-12.2°C 27% Calm Calm -- 29.99 in1015.6 mb - 0.00 in0.0 mm 0.00 in0.0 mm
12:30 AM 42.2°F5.7°C 10.6°F-11.9°C 27% Calm Calm -- 29.99 in1015.6 mb - 0.00 in0.0 mm 0.00 in0.0 mm
12:40 AM 41.8°F5.4°C 10.2°F-12.1°C 27% Calm Calm -- 29.99 in1015.6 mb - 0.00 in0.0 mm 0.00 in0.0 mm
12:50 AM 41.3°F5.2°C 10.6°F-11.9°C 28% Calm Calm -- 29.99 in1015.6 mb - 0.00 in0.0 mm 0.00 in0.0 mm
01:00 AM 39.7°F4.3°C 10.7°F-11.8°C 30% Calm Calm -- 29.98 in1015.2 mb - 0.00 in0.0 mm 0.00 in0.0 mm
01:10 AM 38.7°F3.7°C 10.6°F-11.9°C 31% Calm Calm -- 29.98 in1015.2 mb - 0.00 in0.0 mm 0.00 in0.0 mm
01:20 AM 37.7°F3.2°C 10.4°F-12.0°C 32% Calm Calm -- 29.98 in1015.2 mb - 0.00 in0.0 mm 0.00 in0.0 mm
01:30 AM 36.8°F2.7°C 10.3°F-12.1°C 33% Calm Calm -- 29.99 in1015.6 mb - 0.00 in0.0 mm 0.00 in0.0 mm
01:40 AM 36.0°F2.2°C 10.3°F-12.1°C 34% Calm Calm -- 29.99 in1015.6 mb - 0.00 in0.0 mm 0.00 in0.0 mm
01:50 AM 35.4°F1.9°C 11.0°F-11.7°C 36% Calm Calm -- 29.99 in1015.6 mb - 0.00 in0.0 mm 0.00 in0.0 mm
02:00 AM 34.6°F1.4°C 11.0°F-11.7°C 37% Calm Calm -- 29.99 in1015.6 mb - 0.00 in0.0 mm 0.00 in0.0 mm
02:10 AM 34.3°F1.3°C 11.3°F-11.5°C 38% Calm Calm -- 29.99 in1015.6 mb - 0.00 in0.0 mm 0.00 in0.0 mm
02:20 AM 34.2°F1.2°C 11.2°F-11.6°C 38% Calm Calm -- 29.99 in1015.6 mb - 0.00 in0.0 mm 0.00 in0.0 mm
02:30 AM 34.0°F1.1°C 10.4°F-12.0°C 37% Calm Calm -- 29.99 in1015.6 mb - 0.00 in0.0 mm 0.00 in0.0 mm
02:40 AM 34.1°F1.2°C 10.5°F-11.9°C 37% Calm Calm 3.5 mph5.6 kmh 29.99 in1015.6 mb - 0.00 in0.0 mm 0.00 in0.0 mm
02:50 AM 35.6°F2.0°C 10.6°F-11.9°C 35% Calm Calm 3.5 mph5.6 kmh 29.99 in1015.6 mb - 0.00 in0.0 mm 0.00 in0.0 mm
03:00 AM 36.4°F2.4°C 10.7°F-11.8°C 34% Calm Calm 3.5 mph5.6 kmh 29.99 in1015.6 mb - 0.00 in0.0 mm 0.00 in0.0 mm
03:10 AM 36.1°F2.3°C 10.4°F-12.0°C 34% 1.2 mph NNW1.9 kmh NNW 3.5 mph5.6 kmh 29.99 in1015.6 mb - 0.00 in0.0 mm 0.00 in0.0 mm
03:20 AM 35.3°F1.8°C 10.3°F-12.1°C 35% Calm Calm 2.3 mph3.7 kmh 29.99 in1015.6 mb - 0.00 in0.0 mm 0.00 in0.0 mm
03:30 AM 34.3°F1.3°C 10.1°F-12.2°C 36% Calm Calm 2.3 mph3.7 kmh 29.99 in1015.6 mb - 0.00 in0.0 mm 0.00 in0.0 mm
03:40 AM 33.8°F1.0°C 9.6°F-12.4°C 36% Calm Calm 2.3 mph3.7 kmh 29.98 in1015.2 mb - 0.00 in0.0 mm 0.00 in0.0 mm
03:50 AM 33.2°F0.7°C 9.1°F-12.7°C 36% Calm Calm -- 29.98 in1015.2 mb - 0.00 in0.0 mm 0.00 in0.0 mm
04:00 AM 32.3°F0.2°C 8.3°F-13.2°C 36% 1.2 mph NNW1.9 kmh NNW 2.3 mph3.7 kmh 29.98 in1015.2 mb - 0.00 in0.0 mm 0.00 in0.0 mm
04:10 AM 31.8°F-0.1°C 7.8°F-13.4°C 36% Calm Calm 2.3 mph3.7 kmh 29.98 in1015.2 mb - 0.00 in0.0 mm 0.00 in0.0 mm
04:20 AM 31.5°F-0.3°C 8.2°F-13.2°C 37% Calm Calm 1.2 mph1.9 kmh 29.97 in1014.9 mb - 0.00 in0.0 mm 0.00 in0.0 mm
04:30 AM 31.2°F-0.4°C 7.9°F-13.4°C 37% Calm Calm -- 29.97 in1014.9 mb - 0.00 in0.0 mm 0.00 in0.0 mm
04:40 AM 31.0°F-0.6°C 8.3°F-13.2°C 38% Calm Calm -- 29.97 in1014.9 mb - 0.00 in0.0 mm 0.00 in0.0 mm
04:50 AM 30.6°F-0.8°C 8.5°F-13.1°C 39% Calm Calm 1.2 mph1.9 kmh 29.98 in1015.2 mb - 0.00 in0.0 mm 0.00 in0.0 mm
05:00 AM 30.3°F-0.9°C 8.8°F-12.9°C 40% Calm Calm 1.2 mph1.9 kmh 29.98 in1015.2 mb - 0.00 in0.0 mm 0.00 in0.0 mm
05:10 AM 30.1°F-1.1°C 8.7°F-12.9°C 40% Calm Calm 2.3 mph3.7 kmh 29.98 in1015.2 mb - 0.00 in0.0 mm 0.00 in0.0 mm
05:20 AM 30.3°F-0.9°C 8.8°F-12.9°C 40% Calm Calm -- 29.98 in1015.2 mb - 0.00 in0.0 mm 0.00 in0.0 mm
05:30 AM 30.2°F-1.0°C 8.2°F-13.2°C 39% Calm Calm -- 29.98 in1015.2 mb - 0.00 in0.0 mm 0.00 in0.0 mm
05:40 AM 30.1°F-1.1°C 8.7°F-12.9°C 40% Calm Calm -- 29.98 in1015.2 mb - 0.00 in0.0 mm 0.00 in0.0 mm
05:50 AM 29.5°F-1.4°C 8.7°F-12.9°C 41% Calm Calm -- 29.98 in1015.2 mb - 0.00 in0.0 mm 0.00 in0.0 mm
06:00 AM 29.4°F-1.4°C 9.1°F-12.7°C 42% Calm Calm 1.2 mph1.9 kmh 29.98 in1015.2 mb - 0.00 in0.0 mm 0.00 in0.0 mm
06:10 AM 29.6°F-1.3°C 9.3°F-12.6°C 42% Calm Calm 2.3 mph3.7 kmh 29.98 in1015.2 mb - 0.00 in0.0 mm 0.00 in0.0 mm
06:20 AM 29.6°F-1.3°C 9.8°F-12.3°C 43% Calm Calm 2.3 mph3.7 kmh 29.98 in1015.2 mb - 0.00 in0.0 mm 0.00 in0.0 mm
06:30 AM 29.7°F-1.3°C 9.9°F-12.3°C 43% Calm Calm 1.2 mph1.9 kmh 29.98 in1015.2 mb - 0.00 in0.0 mm 0.00 in0.0 mm
06:40 AM 28.8°F-1.8°C 8.6°F-13.0°C 42% 1.2 mph NNW1.9 kmh NNW 2.3 mph3.7 kmh 29.98 in1015.2 mb - 0.00 in0.0 mm 0.00 in0.0 mm
06:50 AM 28.4°F-2.0°C 8.7°F-12.9°C 43% Calm Calm 2.3 mph3.7 kmh 29.98 in1015.2 mb - 0.00 in0.0 mm 0.00 in0.0 mm
07:00 AM 28.2°F-2.1°C 8.5°F-13.1°C 43% 1.2 mph NNW1.9 kmh NNW 2.3 mph3.7 kmh 29.99 in1015.6 mb - 0.00 in0.0 mm 0.00 in0.0 mm
07:10 AM 28.7°F-1.8°C 9.0°F-12.8°C 43% Calm Calm 2.3 mph3.7 kmh 29.99 in1015.6 mb - 0.00 in0.0 mm 0.00 in0.0 mm
07:20 AM 28.8°F-1.8°C 8.5°F-13.1°C 42% Calm Calm 1.2 mph1.9 kmh 30.00 in1015.9 mb - 0.00 in0.0 mm 0.00 in0.0 mm
07:30 AM 29.1°F-1.6°C 8.8°F-12.9°C 42% Calm Calm 1.2 mph1.9 kmh 30.00 in1015.9 mb - 0.00 in0.0 mm 0.00 in0.0 mm
07:40 AM 29.4°F-1.4°C 9.1°F-12.7°C 42% Calm Calm -- 30.00 in1015.9 mb - 0.00 in0.0 mm 0.00 in0.0 mm
07:50 AM 29.6°F-1.3°C 9.8°F-12.3°C 43% Calm Calm -- 30.00 in1015.9 mb - 0.00 in0.0 mm 0.00 in0.0 mm
08:00 AM 29.6°F-1.3°C 9.3°F-12.6°C 42% Calm Calm -- 30.00 in1015.9 mb - 0.00 in0.0 mm 0.00 in0.0 mm
08:10 AM 29.5°F-1.4°C 9.7°F-12.4°C 43% Calm Calm -- 30.00 in1015.9 mb - 0.00 in0.0 mm 0.00 in0.0 mm
08:20 AM 30.0°F-1.1°C 10.2°F-12.1°C 43% Calm Calm -- 30.01 in1016.3 mb - 0.00 in0.0 mm 0.00 in0.0 mm
08:30 AM 31.4°F-0.3°C 10.3°F-12.1°C 41% 1.2 mph NNW1.9 kmh NNW 4.6 mph7.4 kmh 30.01 in1016.3 mb - 0.00 in0.0 mm 0.00 in0.0 mm
08:40 AM 33.1°F0.6°C 10.8°F-11.8°C 39% 1.2 mph NNW1.9 kmh NNW 3.5 mph5.6 kmh 30.02 in1016.6 mb - 0.00 in0.0 mm 0.00 in0.0 mm
08:50 AM 34.7°F1.5°C 11.0°F-11.7°C 37% 1.2 mph N1.9 kmh N 3.5 mph5.6 kmh 30.02 in1016.6 mb - 0.00 in0.0 mm 0.00 in0.0 mm
09:00 AM 35.5°F1.9°C 11.2°F-11.6°C 36% 1.2 mph N1.9 kmh N 3.5 mph5.6 kmh 30.02 in1016.6 mb - 0.00 in0.0 mm 0.00 in0.0 mm
09:10 AM 36.7°F2.6°C 11.6°F-11.3°C 35% Calm Calm -- 30.02 in1016.6 mb - 0.00 in0.0 mm 0.00 in0.0 mm
09:20 AM 37.9°F3.3°C 12.0°F-11.1°C 34% 1.2 mph N1.9 kmh N 4.6 mph7.4 kmh 30.02 in1016.6 mb - 0.00 in0.0 mm 0.00 in0.0 mm
09:30 AM 38.8°F3.8°C 11.5°F-11.4°C 32% 3.5 mph NNE5.6 kmh NNE 6.9 mph11.1 kmh 30.02 in1016.6 mb - 0.00 in0.0 mm 0.00 in0.0 mm
09:40 AM 39.6°F4.2°C 12.1°F-11.1°C 32% 3.5 mph N5.6 kmh N 4.6 mph7.4 kmh 30.02 in1016.6 mb - 0.00 in0.0 mm 0.00 in0.0 mm
09:50 AM 40.6°F4.8°C 12.3°F-10.9°C 31% Calm Calm 3.5 mph5.6 kmh 30.01 in1016.3 mb - 0.00 in0.0 mm 0.00 in0.0 mm
10:00 AM 41.9°F5.5°C 11.9°F-11.2°C 29% Calm Calm -- 30.01 in1016.3 mb - 0.00 in0.0 mm 0.00 in0.0 mm
10:10 AM 42.5°F5.8°C 12.4°F-10.9°C 29% Calm Calm 1.2 mph1.9 kmh 30.01 in1016.3 mb - 0.00 in0.0 mm 0.00 in0.0 mm
10:20 AM 43.1°F6.2°C 13.0°F-10.6°C 29% Calm Calm -- 30.01 in1016.3 mb - 0.00 in0.0 mm 0.00 in0.0 mm
10:30 AM 44.0°F6.7°C 13.7°F-10.2°C 29% Calm Calm 2.3 mph3.7 kmh 30.01 in1016.3 mb - 0.00 in0.0 mm 0.00 in0.0 mm
10:40 AM 44.9°F7.2°C 12.9°F-10.6°C 27% Calm Calm 1.2 mph1.9 kmh 30.00 in1015.9 mb - 0.00 in0.0 mm 0.00 in0.0 mm
10:50 AM 45.6°F7.6°C 13.5°F-10.3°C 27% Calm Calm -- 30.00 in1015.9 mb - 0.00 in0.0 mm 0.00 in0.0 mm
11:00 AM 46.8°F8.2°C 13.6°F-10.2°C 26% Calm Calm -- 30.00 in1015.9 mb - 0.00 in0.0 mm 0.00 in0.0 mm
11:10 AM 47.5°F8.6°C 12.4°F-10.9°C 24% Calm Calm -- 29.99 in1015.6 mb - 0.00 in0.0 mm 0.00 in0.0 mm
11:20 AM 49.0°F9.4°C 13.7°F-10.2°C 24% Calm Calm -- 30.00 in1015.9 mb - 0.00 in0.0 mm 0.00 in0.0 mm
11:30 AM 49.8°F9.9°C 12.4°F-10.9°C 22% Calm Calm -- 29.99 in1015.6 mb - 0.00 in0.0 mm 0.00 in0.0 mm
11:40 AM 50.9°F10.5°C 12.3°F-10.9°C 21% Calm Calm -- 29.99 in1015.6 mb - 0.00 in0.0 mm 0.00 in0.0 mm
11:50 AM 50.9°F10.5°C 11.2°F-11.6°C 20% Calm Calm -- 29.99 in1015.6 mb - 0.00 in0.0 mm 0.00 in0.0 mm
12:00 PM 52.3°F11.3°C 12.4°F-10.9°C 20% Calm Calm -- 29.98 in1015.2 mb - 0.00 in0.0 mm 0.00 in0.0 mm
12:10 PM 53.3°F11.8°C 12.0°F-11.1°C 19% Calm Calm 1.2 mph1.9 kmh 29.98 in1015.2 mb - 0.00 in0.0 mm 0.00 in0.0 mm
12:20 PM 53.9°F12.2°C 11.3°F-11.5°C 18% 2.3 mph SE3.7 kmh SE 3.5 mph5.6 kmh 29.97 in1014.9 mb - 0.00 in0.0 mm 0.00 in0.0 mm
12:30 PM 53.8°F12.1°C 11.2°F-11.6°C 18% 1.2 mph S1.9 kmh S 4.6 mph7.4 kmh 29.97 in1014.9 mb - 0.00 in0.0 mm 0.00 in0.0 mm
12:40 PM 55.3°F12.9°C 9.8°F-12.3°C 16% 1.2 mph SE1.9 kmh SE 3.5 mph5.6 kmh 29.96 in1014.6 mb - 0.00 in0.0 mm 0.00 in0.0 mm
12:50 PM 55.4°F13.0°C 8.4°F-13.1°C 15% 1.2 mph SE1.9 kmh SE 3.5 mph5.6 kmh 29.96 in1014.6 mb - 0.00 in0.0 mm 0.00 in0.0 mm
01:00 PM 55.7°F13.2°C 8.7°F-12.9°C 15% Calm Calm 3.5 mph5.6 kmh 29.95 in1014.2 mb - 0.00 in0.0 mm 0.00 in0.0 mm
01:10 PM 56.4°F13.6°C 7.7°F-13.5°C 14% 1.2 mph SSE1.9 kmh SSE 3.5 mph5.6 kmh 29.95 in1014.2 mb - 0.00 in0.0 mm 0.00 in0.0 mm
01:20 PM 57.5°F14.2°C 5.2°F-14.9°C 12% 1.2 mph SE1.9 kmh SE 2.3 mph3.7 kmh 29.94 in1013.9 mb - 0.00 in0.0 mm 0.00 in0.0 mm
01:30 PM 57.7°F14.3°C 5.4°F-14.8°C 12% 2.3 mph SW3.7 kmh SW 5.8 mph9.3 kmh 29.94 in1013.9 mb - 0.00 in0.0 mm 0.00 in0.0 mm
01:40 PM 59.2°F15.1°C 4.6°F-15.2°C 11% 1.2 mph SSE1.9 kmh SSE 5.8 mph9.3 kmh 29.93 in1013.5 mb - 0.00 in0.0 mm 0.00 in0.0 mm
01:50 PM 58.8°F14.9°C 4.3°F-15.4°C 11% 2.3 mph S3.7 kmh S 11.5 mph18.5 kmh 29.93 in1013.5 mb - 0.00 in0.0 mm 0.00 in0.0 mm
02:00 PM 59.3°F15.2°C 4.7°F-15.2°C 11% 3.5 mph SSW5.6 kmh SSW 9.2 mph14.8 kmh 29.92 in1013.2 mb - 0.00 in0.0 mm 0.00 in0.0 mm
02:10 PM 59.6°F15.3°C 4.9°F-15.1°C 11% 5.8 mph SE9.3 kmh SE 12.7 mph20.4 kmh 29.91 in1012.9 mb - 0.00 in0.0 mm 0.00 in0.0 mm
02:20 PM 60.1°F15.6°C 3.2°F-16.0°C 10% 1.2 mph SSE1.9 kmh SSE -- 29.90 in1012.5 mb - 0.00 in0.0 mm 0.00 in0.0 mm
02:30 PM 60.2°F15.7°C 3.3°F-15.9°C 10% 4.6 mph SE7.4 kmh SE 8.1 mph13.0 kmh 29.89 in1012.2 mb - 0.00 in0.0 mm 0.00 in0.0 mm
02:40 PM 59.8°F15.4°C 3.0°F-16.1°C 10% 1.2 mph SE1.9 kmh SE 3.5 mph5.6 kmh 29.89 in1012.2 mb - 0.00 in0.0 mm 0.00 in0.0 mm
02:50 PM 60.0°F15.6°C 3.2°F-16.0°C 10% 2.3 mph SE3.7 kmh SE 4.6 mph7.4 kmh 29.89 in1012.2 mb - 0.00 in0.0 mm 0.00 in0.0 mm
03:00 PM 59.6°F15.3°C 2.9°F-16.2°C 10% 3.5 mph SSE5.6 kmh SSE 10.4 mph16.7 kmh 29.88 in1011.9 mb - 0.00 in0.0 mm 0.00 in0.0 mm
03:10 PM 59.4°F15.2°C 2.7°F-16.3°C 10% Calm Calm 2.3 mph3.7 kmh 29.88 in1011.9 mb - 0.00 in0.0 mm 0.00 in0.0 mm
03:20 PM 60.0°F15.6°C 3.2°F-16.0°C 10% 1.2 mph SSE1.9 kmh SSE 3.5 mph5.6 kmh 29.87 in1011.5 mb - 0.00 in0.0 mm 0.00 in0.0 mm
03:30 PM 60.4°F15.8°C 1.2°F-17.1°C 9% 3.5 mph S5.6 kmh S 8.1 mph13.0 kmh 29.87 in1011.5 mb - 0.00 in0.0 mm 0.00 in0.0 mm
03:40 PM 60.4°F15.8°C 3.5°F-15.8°C 10% 2.3 mph SE3.7 kmh SE 10.4 mph16.7 kmh 29.86 in1011.2 mb - 0.00 in0.0 mm 0.00 in0.0 mm
03:50 PM 60.6°F15.9°C 3.6°F-15.8°C 10% 4.6 mph SE7.4 kmh SE 17.3 mph27.8 kmh 29.86 in1011.2 mb - 0.00 in0.0 mm 0.00 in0.0 mm
04:00 PM 60.4°F15.8°C 1.2°F-17.1°C 9% 4.6 mph SSE7.4 kmh SSE 8.1 mph13.0 kmh 29.85 in1010.8 mb - 0.00 in0.0 mm 0.00 in0.0 mm
04:10 PM 60.8°F16.0°C 1.5°F-16.9°C 9% 1.2 mph SSE1.9 kmh SSE 9.2 mph14.8 kmh 29.85 in1010.8 mb - 0.00 in0.0 mm 0.00 in0.0 mm
04:20 PM 60.6°F15.9°C -1.2°F-18.4°C 8% 4.6 mph SSE7.4 kmh SSE 12.7 mph20.4 kmh 29.85 in1010.8 mb - 0.00 in0.0 mm 0.00 in0.0 mm
04:30 PM 60.4°F15.8°C -1.3°F-18.5°C 8% 4.6 mph S7.4 kmh S 12.7 mph20.4 kmh 29.85 in1010.8 mb - 0.00 in0.0 mm 0.00 in0.0 mm
04:40 PM 60.5°F15.8°C -1.2°F-18.4°C 8% 9.2 mph SE14.8 kmh SE 16.1 mph25.9 kmh 29.84 in1010.5 mb - 0.00 in0.0 mm 0.00 in0.0 mm
04:50 PM 61.4°F16.3°C 2.0°F-16.7°C 9% 6.9 mph SE11.1 kmh SE 10.4 mph16.7 kmh 29.84 in1010.5 mb - 0.00 in0.0 mm 0.00 in0.0 mm
05:00 PM 61.8°F16.6°C -0.3°F-17.9°C 8% 4.6 mph SE7.4 kmh SE 9.2 mph14.8 kmh 29.84 in1010.5 mb - 0.00 in0.0 mm 0.00 in0.0 mm
05:10 PM 61.8°F16.6°C 2.3°F-16.5°C 9% 4.6 mph SE7.4 kmh SE 15.0 mph24.1 kmh 29.83 in1010.2 mb - 0.00 in0.0 mm 0.00 in0.0 mm
05:20 PM 62.3°F16.8°C 2.6°F-16.3°C 9% 4.6 mph SE7.4 kmh SE 11.5 mph18.5 kmh 29.82 in1009.8 mb - 0.00 in0.0 mm 0.00 in0.0 mm
05:30 PM 61.9°F16.6°C 2.3°F-16.5°C 9% 10.4 mph SSE16.7 kmh SSE 23.0 mph37.0 kmh 29.82 in1009.8 mb - 0.00 in0.0 mm 0.00 in0.0 mm
05:40 PM 62.3°F16.8°C 0.1°F-17.7°C 8% 5.8 mph S9.3 kmh S 29.9 mph48.1 kmh 29.82 in1009.8 mb - 0.00 in0.0 mm 0.00 in0.0 mm
05:50 PM 62.1°F16.7°C 0.0°F-17.8°C 8% 8.1 mph S13.0 kmh S 11.5 mph18.5 kmh 29.82 in1009.8 mb - 0.00 in0.0 mm 0.00 in0.0 mm
06:00 PM 62.0°F16.7°C -0.1°F-17.8°C 8% 9.2 mph S14.8 kmh S 20.7 mph33.3 kmh 29.83 in1010.2 mb - 0.00 in0.0 mm 0.00 in0.0 mm
06:10 PM 61.4°F16.3°C -0.6°F-18.1°C 8% 6.9 mph S11.1 kmh S 16.1 mph25.9 kmh 29.83 in1010.2 mb - 0.00 in0.0 mm 0.00 in0.0 mm
06:20 PM 60.7°F15.9°C -1.1°F-18.4°C 8% 12.7 mph S20.4 kmh S 19.6 mph31.5 kmh 29.83 in1010.2 mb - 0.00 in0.0 mm 0.00 in0.0 mm
06:30 PM 60.1°F15.6°C -1.6°F-18.7°C 8% 10.4 mph SSE16.7 kmh SSE 15.0 mph24.1 kmh 29.83 in1010.2 mb - 0.00 in0.0 mm 0.00 in0.0 mm
06:40 PM 59.5°F15.3°C 0.5°F-17.5°C 9% 10.4 mph S16.7 kmh S 21.9 mph35.2 kmh 29.84 in1010.5 mb - 0.00 in0.0 mm 0.00 in0.0 mm
06:50 PM 58.7°F14.8°C -0.1°F-17.8°C 9% 3.5 mph S5.6 kmh S 4.6 mph7.4 kmh 29.84 in1010.5 mb - 0.00 in0.0 mm 0.00 in0.0 mm
07:00 PM 58.2°F14.6°C 1.8°F-16.8°C 10% 6.9 mph S11.1 kmh S 17.3 mph27.8 kmh 29.84 in1010.5 mb - 0.00 in0.0 mm 0.00 in0.0 mm
07:10 PM 57.6°F14.2°C 1.3°F-17.1°C 10% 9.2 mph S14.8 kmh S 12.7 mph20.4 kmh 29.85 in1010.8 mb - 0.00 in0.0 mm 0.00 in0.0 mm
07:20 PM 57.1°F13.9°C 0.9°F-17.3°C 10% 8.1 mph S13.0 kmh S 13.8 mph22.2 kmh 29.85 in1010.8 mb - 0.00 in0.0 mm 0.00 in0.0 mm
07:30 PM 56.3°F13.5°C 2.3°F-16.5°C 11% 8.1 mph SSW13.0 kmh SSW 15.0 mph24.1 kmh 29.85 in1010.8 mb - 0.00 in0.0 mm 0.00 in0.0 mm
07:40 PM 55.8°F13.2°C 3.9°F-15.6°C 12% 9.2 mph S14.8 kmh S 15.0 mph24.1 kmh 29.85 in1010.8 mb - 0.00 in0.0 mm 0.00 in0.0 mm
07:50 PM 55.2°F12.9°C 3.4°F-15.9°C 12% 5.8 mph S9.3 kmh S 11.5 mph18.5 kmh 29.85 in1010.8 mb - 0.00 in0.0 mm 0.00 in0.0 mm
08:00 PM 54.6°F12.6°C 4.6°F-15.2°C 13% 6.9 mph SSW11.1 kmh SSW 11.5 mph18.5 kmh 29.86 in1011.2 mb - 0.00 in0.0 mm 0.00 in0.0 mm
08:10 PM 54.4°F12.4°C 4.5°F-15.3°C 13% 4.6 mph SW7.4 kmh SW 11.5 mph18.5 kmh 29.86 in1011.2 mb - 0.00 in0.0 mm 0.00 in0.0 mm
08:20 PM 53.5°F11.9°C 3.7°F-15.7°C 13% 6.9 mph SW11.1 kmh SW 11.5 mph18.5 kmh 29.86 in1011.2 mb - 0.00 in0.0 mm 0.00 in0.0 mm
08:30 PM 51.9°F11.1°C 2.5°F-16.4°C 13% 4.6 mph SW7.4 kmh SW 13.8 mph22.2 kmh 29.86 in1011.2 mb - 0.00 in0.0 mm 0.00 in0.0 mm
08:40 PM 51.7°F10.9°C 2.3°F-16.5°C 13% 8.1 mph SW13.0 kmh SW 16.1 mph25.9 kmh 29.86 in1011.2 mb - 0.00 in0.0 mm 0.00 in0.0 mm
08:50 PM 51.9°F11.1°C 2.5°F-16.4°C 13% 9.2 mph SW14.8 kmh SW 13.8 mph22.2 kmh 29.86 in1011.2 mb - 0.00 in0.0 mm 0.00 in0.0 mm
09:00 PM 51.8°F11.0°C 2.4°F-16.4°C 13% 10.4 mph SW16.7 kmh SW 12.7 mph20.4 kmh 29.86 in1011.2 mb - 0.00 in0.0 mm 0.00 in0.0 mm
09:10 PM 51.5°F10.8°C 3.8°F-15.7°C 14% 9.2 mph SW14.8 kmh SW 11.5 mph18.5 kmh 29.86 in1011.2 mb - 0.00 in0.0 mm 0.00 in0.0 mm
09:20 PM 51.2°F10.7°C 3.5°F-15.8°C 14% 6.9 mph SW11.1 kmh SW 10.4 mph16.7 kmh 29.87 in1011.5 mb - 0.00 in0.0 mm 0.00 in0.0 mm
09:30 PM 50.9°F10.5°C 3.3°F-15.9°C 14% 4.6 mph SW7.4 kmh SW 5.8 mph9.3 kmh 29.87 in1011.5 mb - 0.00 in0.0 mm 0.00 in0.0 mm
09:40 PM 50.6°F10.3°C 3.1°F-16.1°C 14% 4.6 mph WSW7.4 kmh WSW 9.2 mph14.8 kmh 29.88 in1011.9 mb - 0.00 in0.0 mm 0.00 in0.0 mm
09:50 PM 50.3°F10.2°C 4.3°F-15.4°C 15% 2.3 mph WSW3.7 kmh WSW 5.8 mph9.3 kmh 29.88 in1011.9 mb - 0.00 in0.0 mm 0.00 in0.0 mm
10:00 PM 49.9°F9.9°C 4.0°F-15.6°C 15% 5.8 mph WSW9.3 kmh WSW 6.9 mph11.1 kmh 29.87 in1011.5 mb - 0.00 in0.0 mm 0.00 in0.0 mm
10:10 PM 49.5°F9.7°C 3.7°F-15.7°C 15% 3.5 mph WSW5.6 kmh WSW 9.2 mph14.8 kmh 29.88 in1011.9 mb - 0.00 in0.0 mm 0.00 in0.0 mm
10:20 PM 49.2°F9.6°C 4.8°F-15.1°C 16% 2.3 mph WSW3.7 kmh WSW 4.6 mph7.4 kmh 29.88 in1011.9 mb - 0.00 in0.0 mm 0.00 in0.0 mm
10:30 PM 48.7°F9.3°C 4.4°F-15.3°C 16% Calm Calm 3.5 mph5.6 kmh 29.88 in1011.9 mb - 0.00 in0.0 mm 0.00 in0.0 mm
10:40 PM 48.2°F9.0°C 4.0°F-15.6°C 16% Calm Calm 2.3 mph3.7 kmh 29.89 in1012.2 mb - 0.00 in0.0 mm 0.00 in0.0 mm
10:50 PM 47.7°F8.7°C 4.9°F-15.1°C 17% Calm Calm 2.3 mph3.7 kmh 29.89 in1012.2 mb - 0.00 in0.0 mm 0.00 in0.0 mm
11:00 PM 47.0°F8.3°C 4.4°F-15.3°C 17% 1.2 mph WSW1.9 kmh WSW 2.3 mph3.7 kmh 29.89 in1012.2 mb - 0.00 in0.0 mm 0.00 in0.0 mm
11:10 PM 46.4°F8.0°C 5.1°F-14.9°C 18% Calm Calm 3.5 mph5.6 kmh 29.88 in1011.9 mb - 0.00 in0.0 mm 0.00 in0.0 mm
11:20 PM 45.8°F7.7°C 4.6°F-15.2°C 18% Calm Calm 2.3 mph3.7 kmh 29.89 in1012.2 mb - 0.00 in0.0 mm 0.00 in0.0 mm
11:30 PM 45.5°F7.5°C 5.6°F-14.7°C 19% Calm Calm 2.3 mph3.7 kmh 29.89 in1012.2 mb - 0.00 in0.0 mm 0.00 in0.0 mm
11:40 PM 45.2°F7.3°C 5.3°F-14.8°C 19% Calm Calm -- 29.89 in1012.2 mb - 0.00 in0.0 mm 0.00 in0.0 mm
11:50 PM 43.7°F6.5°C 5.1°F-14.9°C 20% Calm Calm -- 29.89 in1012.2 mb - 0.00 in0.0 mm 0.00 in0.0 mm